sensor_id;sensor_type;location;lat;lon;timestamp;pressure;altitude;pressure_sealevel;temperature;humidity
30516;BME280;17297;54.022;10.760;2024-03-23T00:53:59;100690.31;;;10.73;64.87
30516;BME280;17297;54.022;10.760;2024-03-23T00:56:24;100698.38;;;10.73;64.83
30516;BME280;17297;54.022;10.760;2024-03-23T00:58:50;100684.28;;;10.71;64.79
30516;BME280;17297;54.022;10.760;2024-03-23T01:01:15;100690.72;;;10.70;64.70
30516;BME280;17297;54.022;10.760;2024-03-23T01:03:40;100687.38;;;10.68;64.93
30516;BME280;17297;54.022;10.760;2024-03-23T01:06:06;100700.81;;;10.68;64.85
30516;BME280;17297;54.022;10.760;2024-03-23T01:08:31;100681.38;;;10.66;64.86
30516;BME280;17297;54.022;10.760;2024-03-23T01:10:58;100688.59;;;10.65;64.92
30516;BME280;17297;54.022;10.760;2024-03-23T01:13:24;100681.75;;;10.62;64.71
30516;BME280;17297;54.022;10.760;2024-03-23T01:15:50;100672.84;;;10.62;64.87
30516;BME280;17297;54.022;10.760;2024-03-23T01:18:17;100673.88;;;10.61;64.80
30516;BME280;17297;54.022;10.760;2024-03-23T01:20:43;100673.88;;;10.61;64.91
30516;BME280;17297;54.022;10.760;2024-03-23T01:23:08;100671.38;;;10.59;64.93
30516;BME280;17297;54.022;10.760;2024-03-23T01:25:34;100673.22;;;10.59;64.82
30516;BME280;17297;54.022;10.760;2024-03-23T01:27:59;100668.06;;;10.57;64.91
30516;BME280;17297;54.022;10.760;2024-03-23T01:30:24;100666.41;;;10.56;64.73
30516;BME280;17297;54.022;10.760;2024-03-23T01:32:49;100659.34;;;10.55;64.91
30516;BME280;17297;54.022;10.760;2024-03-23T01:35:15;100647.97;;;10.53;64.90
30516;BME280;17297;54.022;10.760;2024-03-23T01:37:40;100645.28;;;10.53;64.74
30516;BME280;17297;54.022;10.760;2024-03-23T01:40:06;100658.06;;;10.51;64.88
30516;BME280;17297;54.022;10.760;2024-03-23T01:42:31;100647.50;;;10.50;64.85
30516;BME280;17297;54.022;10.760;2024-03-23T01:44:57;100640.47;;;10.49;64.84
30516;BME280;17297;54.022;10.760;2024-03-23T01:47:22;100635.09;;;10.49;64.97
30516;BME280;17297;54.022;10.760;2024-03-23T01:49:48;100633.59;;;10.46;64.80
30516;BME280;17297;54.022;10.760;2024-03-23T01:52:13;100636.50;;;10.45;64.75
30516;BME280;17297;54.022;10.760;2024-03-23T01:54:40;100639.38;;;10.43;65.00
30516;BME280;17297;54.022;10.760;2024-03-23T01:57:06;100627.78;;;10.43;64.98
30516;BME280;17297;54.022;10.760;2024-03-23T01:59:31;100621.59;;;10.42;64.99
30516;BME280;17297;54.022;10.760;2024-03-23T02:01:57;100617.25;;;10.41;64.77
30516;BME280;17297;54.022;10.760;2024-03-23T02:04:23;100624.66;;;10.39;64.95
30516;BME280;17297;54.022;10.760;2024-03-23T02:06:49;100618.47;;;10.38;64.86
30516;BME280;17297;54.022;10.760;2024-03-23T02:09:14;100621.31;;;10.37;64.91
30516;BME280;17297;54.022;10.760;2024-03-23T02:11:40;100610.97;;;10.34;64.86
30516;BME280;17297;54.022;10.760;2024-03-23T02:14:05;100607.44;;;10.33;64.91
30516;BME280;17297;54.022;10.760;2024-03-23T02:16:31;100599.59;;;10.32;64.86
30516;BME280;17297;54.022;10.760;2024-03-23T02:18:56;100592.53;;;10.31;64.77
30516;BME280;17297;54.022;10.760;2024-03-23T02:21:21;100597.28;;;10.29;64.99
30516;BME280;17297;54.022;10.760;2024-03-23T02:23:47;100600.16;;;10.27;64.88
30516;BME280;17297;54.022;10.760;2024-03-23T02:26:12;100590.59;;;10.25;64.75
30516;BME280;17297;54.022;10.760;2024-03-23T02:28:39;100592.84;;;10.21;64.85
30516;BME280;17297;54.022;10.760;2024-03-23T02:31:05;100590.34;;;10.20;64.77
30516;BME280;17297;54.022;10.760;2024-03-23T02:33:31;100585.38;;;10.16;64.75
30516;BME280;17297;54.022;10.760;2024-03-23T02:35:57;100587.41;;;10.14;64.98
30516;BME280;17297;54.022;10.760;2024-03-23T02:38:22;100578.72;;;10.12;64.94
30516;BME280;17297;54.022;10.760;2024-03-23T02:40:48;100586.16;;;10.10;64.75
30516;BME280;17297;54.022;10.760;2024-03-23T02:43:13;100582.81;;;10.08;64.94
30516;BME280;17297;54.022;10.760;2024-03-23T02:45:38;100577.81;;;10.05;64.79
30516;BME280;17297;54.022;10.760;2024-03-23T02:48:05;100569.97;;;10.04;64.80
30516;BME280;17297;54.022;10.760;2024-03-23T02:50:31;100566.44;;;10.03;64.89
30516;BME280;17297;54.022;10.760;2024-03-23T02:52:57;100572.22;;;10.00;64.80
30516;BME280;17297;54.022;10.760;2024-03-23T02:55:22;100566.84;;;10.00;64.77
30516;BME280;17297;54.022;10.760;2024-03-23T02:57:47;100550.25;;;9.97;64.94
30516;BME280;17297;54.022;10.760;2024-03-23T03:00:13;100558.50;;;9.95;64.98
30516;BME280;17297;54.022;10.760;2024-03-23T03:02:38;100557.03;;;9.92;64.84
30516;BME280;17297;54.022;10.760;2024-03-23T03:05:04;100559.06;;;9.90;64.99
30516;BME280;17297;54.022;10.760;2024-03-23T03:07:31;100555.78;;;9.88;64.88
30516;BME280;17297;54.022;10.760;2024-03-23T03:09:56;100550.78;;;9.85;65.01
30516;BME280;17297;54.022;10.760;2024-03-23T03:12:21;100547.28;;;9.85;64.80
30516;BME280;17297;54.022;10.760;2024-03-23T03:14:47;100542.28;;;9.82;64.88
30516;BME280;17297;54.022;10.760;2024-03-23T03:17:13;100544.31;;;9.80;64.95
30516;BME280;17297;54.022;10.760;2024-03-23T03:19:40;100546.56;;;9.76;64.99
30516;BME280;17297;54.022;10.760;2024-03-23T03:22:05;100541.38;;;9.75;64.97
30516;BME280;17297;54.022;10.760;2024-03-23T03:24:30;100538.88;;;9.73;64.98
30516;BME280;17297;54.022;10.760;2024-03-23T03:26:56;100540.09;;;9.70;64.99
30516;BME280;17297;54.022;10.760;2024-03-23T03:29:22;100531.41;;;9.68;65.08
30516;BME280;17297;54.022;10.760;2024-03-23T03:31:47;100532.44;;;9.67;65.01
30516;BME280;17297;54.022;10.760;2024-03-23T03:34:15;100529.94;;;9.66;65.12
30516;BME280;17297;54.022;10.760;2024-03-23T03:36:40;100525.56;;;9.65;65.23
30516;BME280;17297;54.022;10.760;2024-03-23T03:39:06;100517.72;;;9.63;65.08
30516;BME280;17297;54.022;10.760;2024-03-23T03:41:32;100522.28;;;9.63;65.14
30516;BME280;17297;54.022;10.760;2024-03-23T03:43:57;100511.72;;;9.61;65.21
30516;BME280;17297;54.022;10.760;2024-03-23T03:46:27;100513.56;;;9.61;65.15
30516;BME280;17297;54.022;10.760;2024-03-23T03:48:54;100510.22;;;9.59;65.06
30516;BME280;17297;54.022;10.760;2024-03-23T03:51:19;100502.38;;;9.57;65.02
30516;BME280;17297;54.022;10.760;2024-03-23T03:53:45;100499.06;;;9.55;65.11
30516;BME280;17297;54.022;10.760;2024-03-23T03:56:10;100498.22;;;9.55;65.15
30516;BME280;17297;54.022;10.760;2024-03-23T03:58:35;100491.19;;;9.54;65.14
30516;BME280;17297;54.022;10.760;2024-03-23T04:01:01;100486.00;;;9.52;65.36
30516;BME280;17297;54.022;10.760;2024-03-23T04:03:26;100485.19;;;9.52;65.36
30516;BME280;17297;54.022;10.760;2024-03-23T04:05:55;100481.84;;;9.49;65.19
30516;BME280;17297;54.022;10.760;2024-03-23T04:08:20;100480.19;;;9.48;65.33
30516;BME280;17297;54.022;10.760;2024-03-23T04:10:46;100480.19;;;9.48;65.27
30516;BME280;17297;54.022;10.760;2024-03-23T04:13:12;100477.50;;;9.48;65.38
30516;BME280;17297;54.022;10.760;2024-03-23T04:15:38;100481.22;;;9.47;65.40
30516;BME280;17297;54.022;10.760;2024-03-23T04:18:03;100487.59;;;9.46;65.24
30516;BME280;17297;54.022;10.760;2024-03-23T04:20:29;100482.06;;;9.48;65.26
30516;BME280;17297;54.022;10.760;2024-03-23T04:22:54;100474.19;;;9.46;65.21
30516;BME280;17297;54.022;10.760;2024-03-23T04:25:19;100469.00;;;9.45;65.35
30516;BME280;17297;54.022;10.760;2024-03-23T04:27:45;100469.00;;;9.45;65.45
30516;BME280;17297;54.022;10.760;2024-03-23T04:30:11;100467.38;;;9.44;65.31
30516;BME280;17297;54.022;10.760;2024-03-23T04:32:37;100467.38;;;9.44;65.43
30516;BME280;17297;54.022;10.760;2024-03-23T04:35:03;100460.13;;;9.44;65.35
30516;BME280;17297;54.022;10.760;2024-03-23T04:37:32;100452.91;;;9.45;65.31
30516;BME280;17297;54.022;10.760;2024-03-23T04:40:00;100454.13;;;9.42;65.34
30516;BME280;17297;54.022;10.760;2024-03-23T04:42:25;100454.75;;;9.44;65.54
30516;BME280;17297;54.022;10.760;2024-03-23T04:44:50;100457.84;;;9.41;65.57
30516;BME280;17297;54.022;10.760;2024-03-23T04:47:16;100463.19;;;9.41;65.44
30516;BME280;17297;54.022;10.760;2024-03-23T04:49:42;100448.09;;;9.40;65.54
30516;BME280;17297;54.022;10.760;2024-03-23T04:52:07;100436.75;;;9.38;65.58
30516;BME280;17297;54.022;10.760;2024-03-23T04:54:32;100437.75;;;9.37;65.43
30516;BME280;17297;54.022;10.760;2024-03-23T04:56:58;100421.03;;;9.35;65.47
30516;BME280;17297;54.022;10.760;2024-03-23T04:59:24;100417.50;;;9.35;65.57
30516;BME280;17297;54.022;10.760;2024-03-23T05:01:50;100416.66;;;9.34;65.46
30516;BME280;17297;54.022;10.760;2024-03-23T05:04:15;100436.47;;;9.33;65.48
30516;BME280;17297;54.022;10.760;2024-03-23T05:06:40;100444.72;;;9.32;65.62
30516;BME280;17297;54.022;10.760;2024-03-23T05:09:07;100446.78;;;9.30;65.42
30516;BME280;17297;54.022;10.760;2024-03-23T05:11:33;100447.59;;;9.30;65.63
30516;BME280;17297;54.022;10.760;2024-03-23T05:13:59;100434.38;;;9.29;65.51
30516;BME280;17297;54.022;10.760;2024-03-23T05:16:25;100451.31;;;9.29;65.55
30516;BME280;17297;54.022;10.760;2024-03-23T05:18:51;100455.84;;;9.29;65.71
30516;BME280;17297;54.022;10.760;2024-03-23T05:21:17;100458.53;;;9.29;65.61
30516;BME280;17297;54.022;10.760;2024-03-23T05:23:42;100459.38;;;9.29;65.77
30516;BME280;17297;54.022;10.760;2024-03-23T05:26:08;100448.63;;;9.29;65.65
30516;BME280;17297;54.022;10.760;2024-03-23T05:28:34;100439.75;;;9.29;65.87
30516;BME280;17297;54.022;10.760;2024-03-23T05:31:00;100440.38;;;9.31;65.75
30516;BME280;17297;54.022;10.760;2024-03-23T05:33:25;100426.13;;;9.30;65.72
30516;BME280;17297;54.022;10.760;2024-03-23T05:36:02;100433.13;;;9.31;65.83
30516;BME280;17297;54.022;10.760;2024-03-23T05:38:30;100434.00;;;9.32;65.79
30516;BME280;17297;54.022;10.760;2024-03-23T05:40:57;100428.63;;;9.32;65.81
30516;BME280;17297;54.022;10.760;2024-03-23T05:43:23;100427.59;;;9.33;65.97
30516;BME280;17297;54.022;10.760;2024-03-23T05:45:59;100431.09;;;9.33;66.07
30516;BME280;17297;54.022;10.760;2024-03-23T05:48:28;100440.81;;;9.34;65.93
30516;BME280;17297;54.022;10.760;2024-03-23T05:50:55;100444.16;;;9.36;65.83
30516;BME280;17297;54.022;10.760;2024-03-23T05:53:20;100441.28;;;9.38;66.08
30516;BME280;17297;54.022;10.760;2024-03-23T05:55:46;100444.59;;;9.40;66.12
30516;BME280;17297;54.022;10.760;2024-03-23T05:58:14;100445.22;;;9.42;65.96
30516;BME280;17297;54.022;10.760;2024-03-23T06:00:40;100436.78;;;9.45;65.88
30516;BME280;17297;54.022;10.760;2024-03-23T06:03:06;100426.50;;;9.48;66.04
30516;BME280;17297;54.022;10.760;2024-03-23T06:05:31;100425.06;;;9.53;66.18
30516;BME280;17297;54.022;10.760;2024-03-23T06:07:56;100425.72;;;9.55;66.14
30516;BME280;17297;54.022;10.760;2024-03-23T06:10:22;100421.63;;;9.59;65.98
30516;BME280;17297;54.022;10.760;2024-03-23T06:12:47;100418.53;;;9.62;66.16
30516;BME280;17297;54.022;10.760;2024-03-23T06:15:14;100413.00;;;9.63;65.94
30516;BME280;17297;54.022;10.760;2024-03-23T06:17:39;100411.56;;;9.67;65.96
30516;BME280;17297;54.022;10.760;2024-03-23T06:20:05;100404.97;;;9.70;65.95
30516;BME280;17297;54.022;10.760;2024-03-23T06:22:33;100408.09;;;9.74;66.11
30516;BME280;17297;54.022;10.760;2024-03-23T06:24:59;100397.78;;;9.77;66.01
30516;BME280;17297;54.022;10.760;2024-03-23T06:27:24;100409.59;;;9.83;66.03
30516;BME280;17297;54.022;10.760;2024-03-23T06:29:50;100408.00;;;9.88;66.26
30516;BME280;17297;54.022;10.760;2024-03-23T06:32:15;100412.38;;;9.96;66.17
30516;BME280;17297;54.022;10.760;2024-03-23T06:34:44;100417.78;;;10.03;66.08
30516;BME280;17297;54.022;10.760;2024-03-23T06:37:10;100413.91;;;10.12;66.22
30516;BME280;17297;54.022;10.760;2024-03-23T06:39:38;100415.69;;;10.26;66.25
30516;BME280;17297;54.022;10.760;2024-03-23T06:42:04;100415.56;;;10.41;66.25
30516;BME280;17297;54.022;10.760;2024-03-23T06:44:30;100411.72;;;10.63;66.28
30516;BME280;17297;54.022;10.760;2024-03-23T06:46:56;100414.94;;;10.94;66.46
30516;BME280;17297;54.022;10.760;2024-03-23T06:49:22;100410.81;;;11.24;66.17
30516;BME280;17297;54.022;10.760;2024-03-23T06:51:48;100405.06;;;11.47;66.01
30516;BME280;17297;54.022;10.760;2024-03-23T06:54:13;100400.25;;;11.76;65.82
30516;BME280;17297;54.022;10.760;2024-03-23T06:56:39;100399.63;;;12.07;65.57
30516;BME280;17297;54.022;10.760;2024-03-23T06:59:04;100390.19;;;12.43;65.47
30516;BME280;17297;54.022;10.760;2024-03-23T07:01:29;100386.88;;;12.79;65.29
30516;BME280;17297;54.022;10.760;2024-03-23T07:03:55;100384.28;;;13.29;64.97
30516;BME280;17297;54.022;10.760;2024-03-23T07:06:20;100389.91;;;13.78;64.73
30516;BME280;17297;54.022;10.760;2024-03-23T07:08:46;100388.38;;;14.25;64.29
30516;BME280;17297;54.022;10.760;2024-03-23T07:11:12;100386.28;;;14.64;63.59
30516;BME280;17297;54.022;10.760;2024-03-23T07:13:37;100387.78;;;14.90;62.80
30516;BME280;17297;54.022;10.760;2024-03-23T07:16:02;100380.25;;;14.92;62.20
30516;BME280;17297;54.022;10.760;2024-03-23T07:18:28;100386.19;;;14.83;61.76
30516;BME280;17297;54.022;10.760;2024-03-23T07:20:57;100377.59;;;14.74;61.54
30516;BME280;17297;54.022;10.760;2024-03-23T07:23:24;100376.63;;;14.68;61.42
30516;BME280;17297;54.022;10.760;2024-03-23T07:26:03;100379.28;;;14.57;61.37
30516;BME280;17297;54.022;10.760;2024-03-23T07:28:29;100383.84;;;14.38;61.23
30516;BME280;17297;54.022;10.760;2024-03-23T07:33:27;100384.13;;;14.11;61.25
30516;BME280;17297;54.022;10.760;2024-03-23T07:35:52;100371.75;;;14.03;61.40
30516;BME280;17297;54.022;10.760;2024-03-23T07:38:18;100374.75;;;14.14;61.54
30516;BME280;17297;54.022;10.760;2024-03-23T07:40:45;100367.16;;;14.22;61.13
30516;BME280;17297;54.022;10.760;2024-03-23T07:43:10;100373.31;;;14.29;61.09
30516;BME280;17297;54.022;10.760;2024-03-23T07:45:35;100371.75;;;14.40;60.92
30516;BME280;17297;54.022;10.760;2024-03-23T07:48:03;100379.19;;;14.45;60.74
30516;BME280;17297;54.022;10.760;2024-03-23T07:50:28;100367.91;;;14.48;60.47
30516;BME280;17297;54.022;10.760;2024-03-23T07:52:53;100367.16;;;14.59;60.37
30516;BME280;17297;54.022;10.760;2024-03-23T07:55:19;100365.44;;;14.65;60.20
30516;BME280;17297;54.022;10.760;2024-03-23T07:57:44;100368.22;;;14.58;59.86
30516;BME280;17297;54.022;10.760;2024-03-23T08:00:10;100357.75;;;14.43;59.79
30516;BME280;17297;54.022;10.760;2024-03-23T08:02:35;100363.34;;;14.30;59.91
30516;BME280;17297;54.022;10.760;2024-03-23T08:05:00;100368.44;;;14.20;60.15
30516;BME280;17297;54.022;10.760;2024-03-23T08:07:26;100362.75;;;14.09;60.20
30516;BME280;17297;54.022;10.760;2024-03-23T08:09:55;100363.94;;;13.95;60.31
30516;BME280;17297;54.022;10.760;2024-03-23T08:12:20;100364.31;;;13.80;60.40
30516;BME280;17297;54.022;10.760;2024-03-23T08:14:45;100365.72;;;13.65;60.45
30516;BME280;17297;54.022;10.760;2024-03-23T08:17:11;100354.19;;;13.51;60.46
30516;BME280;17297;54.022;10.760;2024-03-23T08:19:36;100359.09;;;13.35;60.55
30516;BME280;17297;54.022;10.760;2024-03-23T08:22:01;100352.56;;;13.25;60.80
30516;BME280;17297;54.022;10.760;2024-03-23T08:24:27;100350.75;;;13.12;60.98
30516;BME280;17297;54.022;10.760;2024-03-23T08:26:54;100349.34;;;13.03;61.05
30516;BME280;17297;54.022;10.760;2024-03-23T08:29:19;100342.56;;;12.93;60.97
30516;BME280;17297;54.022;10.760;2024-03-23T08:31:45;100348.84;;;12.87;61.17
30516;BME280;17297;54.022;10.760;2024-03-23T08:34:10;100347.59;;;12.83;61.37
30516;BME280;17297;54.022;10.760;2024-03-23T08:36:35;100349.91;;;12.80;61.31
30516;BME280;17297;54.022;10.760;2024-03-23T08:39:00;100331.69;;;12.75;61.25
30516;BME280;17297;54.022;10.760;2024-03-23T08:41:26;100335.63;;;12.73;61.31
30516;BME280;17297;54.022;10.760;2024-03-23T08:43:51;100340.66;;;12.69;61.51
30516;BME280;17297;54.022;10.760;2024-03-23T08:46:16;100340.66;;;12.69;61.49
30516;BME280;17297;54.022;10.760;2024-03-23T08:48:46;100341.25;;;12.71;61.51
30516;BME280;17297;54.022;10.760;2024-03-23T08:51:15;100327.53;;;12.73;61.46
30516;BME280;17297;54.022;10.760;2024-03-23T08:53:41;100330.44;;;12.78;61.57
30516;BME280;17297;54.022;10.760;2024-03-23T08:56:07;100320.59;;;12.83;61.50
30516;BME280;17297;54.022;10.760;2024-03-23T08:58:33;100324.53;;;12.87;61.47
30516;BME280;17297;54.022;10.760;2024-03-23T09:01:09;100322.44;;;12.89;61.63
30516;BME280;17297;54.022;10.760;2024-03-23T09:03:36;100317.66;;;12.91;61.51
30516;BME280;17297;54.022;10.760;2024-03-23T09:06:06;100315.78;;;12.92;61.34
30516;BME280;17297;54.022;10.760;2024-03-23T09:08:31;100315.56;;;12.93;61.53
30516;BME280;17297;54.022;10.760;2024-03-23T09:10:57;100301.25;;;12.93;61.24
30516;BME280;17297;54.022;10.760;2024-03-23T09:13:22;100307.25;;;12.95;61.52
30516;BME280;17297;54.022;10.760;2024-03-23T09:15:49;100302.84;;;13.01;61.35
30516;BME280;17297;54.022;10.760;2024-03-23T09:18:15;100295.94;;;13.05;61.31
30516;BME280;17297;54.022;10.760;2024-03-23T09:20:41;100294.03;;;13.12;61.24
30516;BME280;17297;54.022;10.760;2024-03-23T09:23:06;100288.56;;;13.18;61.16
30516;BME280;17297;54.022;10.760;2024-03-23T09:25:31;100293.13;;;13.25;61.27
30516;BME280;17297;54.022;10.760;2024-03-23T09:27:58;100285.16;;;13.30;61.18
30516;BME280;17297;54.022;10.760;2024-03-23T09:30:23;100287.59;;;13.38;60.90
30516;BME280;17297;54.022;10.760;2024-03-23T09:32:49;100285.66;;;13.45;60.99
30516;BME280;17297;54.022;10.760;2024-03-23T09:35:14;100283.09;;;13.50;60.86
30516;BME280;17297;54.022;10.760;2024-03-23T09:37:39;100278.44;;;13.57;60.86
30516;BME280;17297;54.022;10.760;2024-03-23T09:40:09;100280.50;;;13.62;60.72
30516;BME280;17297;54.022;10.760;2024-03-23T09:42:34;100272.97;;;13.64;60.52
30516;BME280;17297;54.022;10.760;2024-03-23T09:45:00;100268.78;;;13.68;60.54
30516;BME280;17297;54.022;10.760;2024-03-23T09:47:26;100268.09;;;13.73;60.34
30516;BME280;17297;54.022;10.760;2024-03-23T09:49:52;100264.56;;;13.72;60.01
30516;BME280;17297;54.022;10.760;2024-03-23T09:52:17;100269.38;;;13.70;59.77
30516;BME280;17297;54.022;10.760;2024-03-23T09:54:42;100254.66;;;13.66;59.54
30516;BME280;17297;54.022;10.760;2024-03-23T09:57:08;100253.91;;;13.59;59.25
30516;BME280;17297;54.022;10.760;2024-03-23T09:59:33;100256.69;;;13.52;59.20
30516;BME280;17297;54.022;10.760;2024-03-23T10:02:01;100262.38;;;13.44;59.04
30516;BME280;17297;54.022;10.760;2024-03-23T10:04:37;100272.50;;;13.30;59.04
30516;BME280;17297;54.022;10.760;2024-03-23T10:07:12;100263.03;;;13.14;59.22
30516;BME280;17297;54.022;10.760;2024-03-23T10:09:42;100266.69;;;13.02;59.55
30516;BME280;17297;54.022;10.760;2024-03-23T10:12:12;100271.13;;;12.89;59.77
30516;BME280;17297;54.022;10.760;2024-03-23T10:14:39;100275.59;;;12.77;59.76
30516;BME280;17297;54.022;10.760;2024-03-23T10:17:16;100266.56;;;12.65;60.08
30516;BME280;17297;54.022;10.760;2024-03-23T10:19:48;100269.56;;;12.50;59.86
30516;BME280;17297;54.022;10.760;2024-03-23T10:22:21;100259.88;;;12.36;59.89
30516;BME280;17297;54.022;10.760;2024-03-23T10:24:47;100252.69;;;12.23;60.03
30516;BME280;17297;54.022;10.760;2024-03-23T10:27:17;100255.44;;;12.16;60.08
30516;BME280;17297;54.022;10.760;2024-03-23T10:29:49;100246.53;;;12.16;60.44
30516;BME280;17297;54.022;10.760;2024-03-23T10:32:16;100238.59;;;12.21;60.65
30516;BME280;17297;54.022;10.760;2024-03-23T10:34:42;100240.44;;;12.27;60.80
30516;BME280;17297;54.022;10.760;2024-03-23T10:37:08;100234.78;;;12.35;60.75
30516;BME280;17297;54.022;10.760;2024-03-23T10:39:35;100228.09;;;12.44;61.16
30516;BME280;17297;54.022;10.760;2024-03-23T10:42:09;100227.16;;;12.57;61.14
30516;BME280;17297;54.022;10.760;2024-03-23T10:44:37;100221.09;;;12.68;61.19
30516;BME280;17297;54.022;10.760;2024-03-23T10:47:04;100213.50;;;12.77;61.06
30516;BME280;17297;54.022;10.760;2024-03-23T10:49:34;100219.72;;;12.84;61.00
30516;BME280;17297;54.022;10.760;2024-03-23T10:52:18;100220.03;;;12.94;60.96
30516;BME280;17297;54.022;10.760;2024-03-23T10:54:44;100213.75;;;13.01;60.67
30516;BME280;17297;54.022;10.760;2024-03-23T10:57:15;100218.50;;;13.05;60.36
30516;BME280;17297;54.022;10.760;2024-03-23T10:59:43;100207.44;;;13.07;60.20
30516;BME280;17297;54.022;10.760;2024-03-23T11:02:19;100207.28;;;13.02;59.80
30516;BME280;17297;54.022;10.760;2024-03-23T11:04:45;100218.09;;;13.02;59.68
30516;BME280;17297;54.022;10.760;2024-03-23T11:07:33;100207.28;;;13.02;59.69
30516;BME280;17297;54.022;10.760;2024-03-23T11:09:59;100206.41;;;13.08;59.57
30516;BME280;17297;54.022;10.760;2024-03-23T11:17:20;100187.56;;;13.45;59.29
30516;BME280;17297;54.022;10.760;2024-03-23T11:22:51;100191.22;;;13.69;59.17
30516;BME280;17297;54.022;10.760;2024-03-23T11:25:22;100193.84;;;13.75;58.76
30516;BME280;17297;54.022;10.760;2024-03-23T11:27:50;100189.16;;;13.82;58.41
30516;BME280;17297;54.022;10.760;2024-03-23T11:30:19;100190.59;;;13.85;58.17
30516;BME280;17297;54.022;10.760;2024-03-23T11:32:46;100184.13;;;13.86;57.77
30516;BME280;17297;54.022;10.760;2024-03-23T11:35:31;100180.97;;;13.89;57.91
30516;BME280;17297;54.022;10.760;2024-03-23T11:38:09;100177.59;;;13.94;57.51
30516;BME280;17297;54.022;10.760;2024-03-23T11:40:39;100175.25;;;13.97;57.24
30516;BME280;17297;54.022;10.760;2024-03-23T11:43:06;100169.38;;;14.00;57.00
30516;BME280;17297;54.022;10.760;2024-03-23T11:45:39;100171.03;;;14.01;56.70
30516;BME280;17297;54.022;10.760;2024-03-23T11:48:13;100166.59;;;14.07;56.75
30516;BME280;17297;54.022;10.760;2024-03-23T11:50:42;100181.91;;;14.13;56.63
30516;BME280;17297;54.022;10.760;2024-03-23T11:53:14;100174.59;;;14.14;56.35
30516;BME280;17297;54.022;10.760;2024-03-23T11:55:48;100173.63;;;14.08;55.87
30516;BME280;17297;54.022;10.760;2024-03-23T11:58:15;100182.31;;;13.98;55.54
30516;BME280;17297;54.022;10.760;2024-03-23T12:00:42;100192.84;;;13.88;55.29
30516;BME280;17297;54.022;10.760;2024-03-23T12:03:07;100190.09;;;13.76;55.22
30516;BME280;17297;54.022;10.760;2024-03-23T12:05:34;100191.69;;;13.66;55.22
30516;BME280;17297;54.022;10.760;2024-03-23T12:08:19;100192.78;;;13.58;55.66
30516;BME280;17297;54.022;10.760;2024-03-23T12:13:19;100190.78;;;13.53;55.41
30516;BME280;17297;54.022;10.760;2024-03-23T12:15:47;100182.53;;;13.48;55.35
30516;BME280;17297;54.022;10.760;2024-03-23T12:18:12;100188.44;;;13.38;55.29
30516;BME280;17297;54.022;10.760;2024-03-23T12:20:38;100180.88;;;13.29;55.26
30516;BME280;17297;54.022;10.760;2024-03-23T12:23:05;100193.81;;;13.20;55.29
30516;BME280;17297;54.022;10.760;2024-03-23T12:25:31;100184.13;;;13.12;55.23
30516;BME280;17297;54.022;10.760;2024-03-23T12:27:59;100191.25;;;13.07;54.97
30516;BME280;17297;54.022;10.760;2024-03-23T12:30:24;100191.50;;;13.05;55.06
30516;BME280;17297;54.022;10.760;2024-03-23T12:32:51;100180.44;;;13.07;55.31
30516;BME280;17297;54.022;10.760;2024-03-23T12:35:16;100175.22;;;13.12;55.30
30516;BME280;17297;54.022;10.760;2024-03-23T12:37:41;100171.63;;;13.18;55.38
30516;BME280;17297;54.022;10.760;2024-03-23T12:40:07;100171.59;;;13.25;55.38
30516;BME280;17297;54.022;10.760;2024-03-23T12:42:33;100168.81;;;13.31;55.56
30516;BME280;17297;54.022;10.760;2024-03-23T12:44:58;100180.13;;;13.40;55.33
30516;BME280;17297;54.022;10.760;2024-03-23T12:47:23;100166.75;;;13.45;55.47
30516;BME280;17297;54.022;10.760;2024-03-23T12:49:49;100163.41;;;13.50;55.49
30516;BME280;17297;54.022;10.760;2024-03-23T12:52:14;100158.97;;;13.55;55.54
30516;BME280;17297;54.022;10.760;2024-03-23T12:54:40;100150.53;;;13.63;55.38
30516;BME280;17297;54.022;10.760;2024-03-23T12:57:05;100157.53;;;13.71;55.32
30516;BME280;17297;54.022;10.760;2024-03-23T12:59:31;100157.78;;;13.81;55.13
30516;BME280;17297;54.022;10.760;2024-03-23T13:01:57;100166.19;;;13.92;55.17
30516;BME280;17297;54.022;10.760;2024-03-23T13:04:23;100164.81;;;14.01;54.84
30516;BME280;17297;54.022;10.760;2024-03-23T13:06:48;100173.06;;;14.06;54.68
30516;BME280;17297;54.022;10.760;2024-03-23T13:09:14;100187.41;;;14.06;54.52
30516;BME280;17297;54.022;10.760;2024-03-23T13:11:39;100195.38;;;14.01;54.61
30516;BME280;17297;54.022;10.760;2024-03-23T13:14:04;100218.81;;;13.89;54.38
30516;BME280;17297;54.022;10.760;2024-03-23T13:16:31;100223.50;;;13.63;54.30
30516;BME280;17297;54.022;10.760;2024-03-23T13:18:57;100227.34;;;13.37;54.50
30516;BME280;17297;54.022;10.760;2024-03-23T13:21:24;100231.69;;;13.13;54.78
30516;BME280;17297;54.022;10.760;2024-03-23T13:23:49;100236.03;;;12.89;54.98
30516;BME280;17297;54.022;10.760;2024-03-23T13:26:15;100231.44;;;12.71;55.22
30516;BME280;17297;54.022;10.760;2024-03-23T13:28:40;100227.59;;;12.54;55.26
30516;BME280;17297;54.022;10.760;2024-03-23T13:31:06;100232.28;;;12.40;55.45
30516;BME280;17297;54.022;10.760;2024-03-23T13:33:33;100242.94;;;12.29;55.64
30516;BME280;17297;54.022;10.760;2024-03-23T13:35:59;100236.13;;;12.19;55.64
30516;BME280;17297;54.022;10.760;2024-03-23T13:38:25;100229.34;;;12.10;56.01
30516;BME280;17297;54.022;10.760;2024-03-23T13:40:58;100226.44;;;12.05;56.11
30516;BME280;17297;54.022;10.760;2024-03-23T13:43:25;100223.97;;;12.04;56.23
30516;BME280;17297;54.022;10.760;2024-03-23T13:45:55;100218.97;;;12.07;56.60